createdAt,value
2022-10-09T00:01:06.634Z,19.30
2022-10-09T00:03:34.889Z,19.40
2022-10-09T00:06:03.071Z,19.40
2022-10-09T00:08:30.625Z,19.50
2022-10-09T00:10:58.197Z,19.50
2022-10-09T00:13:25.774Z,19.50
2022-10-09T00:15:53.182Z,19.50
2022-10-09T00:18:20.789Z,19.40
2022-10-09T00:20:48.383Z,19.40
2022-10-09T00:23:17.698Z,19.30
2022-10-09T00:25:55.803Z,19.30
2022-10-09T00:28:24.255Z,19.20
2022-10-09T00:30:52.275Z,19.20
2022-10-09T00:33:20.481Z,19.30
2022-10-09T00:35:48.474Z,19.40
2022-10-09T00:38:16.204Z,19.20
2022-10-09T00:40:43.858Z,19.20
2022-10-09T00:43:15.213Z,19.20
2022-10-09T00:45:50.167Z,19.10
2022-10-09T00:48:18.646Z,19.00
2022-10-09T00:51:04.278Z,19.00
2022-10-09T00:53:31.835Z,19.00
2022-10-09T00:55:59.671Z,18.90
2022-10-09T00:58:27.260Z,18.90
2022-10-09T01:00:54.821Z,19.00
2022-10-09T01:03:22.285Z,19.00
2022-10-09T01:05:49.739Z,19.10
2022-10-09T01:08:20.506Z,19.20
2022-10-09T01:10:54.365Z,19.00
2022-10-09T01:13:32.940Z,18.80
2022-10-09T01:16:06.652Z,18.70
2022-10-09T01:18:41.155Z,18.90
2022-10-09T01:21:24.146Z,18.90
2022-10-09T01:24:10.677Z,19.00
2022-10-09T01:26:57.210Z,18.80
2022-10-09T01:29:26.932Z,18.60
2022-10-09T01:31:55.030Z,18.50
2022-10-09T01:34:23.512Z,18.70
2022-10-09T01:36:51.890Z,18.80
2022-10-09T01:39:21.499Z,18.80
2022-10-09T01:41:50.335Z,18.80
2022-10-09T01:44:28.339Z,18.90
2022-10-09T01:46:56.229Z,18.90
2022-10-09T01:49:29.765Z,18.90
2022-10-09T01:52:00.707Z,19.00
2022-10-09T01:54:40.692Z,18.90
2022-10-09T01:57:08.646Z,18.90
2022-10-09T01:59:39.261Z,18.90
2022-10-09T02:02:07.619Z,18.80
2022-10-09T02:04:37.125Z,18.80
2022-10-09T02:07:05.097Z,18.80
2022-10-09T02:09:33.298Z,18.90
2022-10-09T02:12:03.614Z,18.80
2022-10-09T02:14:31.355Z,18.80
2022-10-09T02:17:02.702Z,18.80
2022-10-09T02:19:43.131Z,18.80
2022-10-09T02:22:10.571Z,18.90
2022-10-09T02:24:39.663Z,18.90
2022-10-09T02:27:08.108Z,18.80
2022-10-09T02:29:35.837Z,18.90
2022-10-09T02:32:03.677Z,18.80
2022-10-09T02:34:31.152Z,18.90
2022-10-09T02:36:58.713Z,18.90
2022-10-09T02:39:26.304Z,18.90
2022-10-09T02:41:53.877Z,18.90
2022-10-09T02:44:21.482Z,18.90
2022-10-09T02:46:48.989Z,18.90
2022-10-09T02:49:16.603Z,18.90
2022-10-09T02:51:44.112Z,19.00
2022-10-09T02:54:11.735Z,18.90
2022-10-09T02:56:39.378Z,18.90
2022-10-09T02:59:07.125Z,18.90
2022-10-09T03:01:35.219Z,18.90
2022-10-09T03:04:02.847Z,18.90
2022-10-09T03:06:30.505Z,18.80
2022-10-09T03:08:58.266Z,18.80
2022-10-09T03:11:25.865Z,18.80
2022-10-09T03:13:54.531Z,18.70
2022-10-09T03:16:23.394Z,18.80
2022-10-09T03:18:51.724Z,18.90
2022-10-09T03:21:20.421Z,18.90
2022-10-09T03:23:48.253Z,18.90
2022-10-09T03:26:17.455Z,18.90
2022-10-09T03:28:47.781Z,19.00
2022-10-09T03:31:46.511Z,19.00
2022-10-09T03:34:07.243Z,19.10
2022-10-09T03:36:34.743Z,19.10
2022-10-09T03:39:02.266Z,19.10
2022-10-09T03:41:29.775Z,19.10
2022-10-09T03:43:57.338Z,19.10
2022-10-09T03:46:24.881Z,19.10
2022-10-09T03:48:52.605Z,19.10
2022-10-09T03:51:20.168Z,19.10
2022-10-09T03:53:47.675Z,19.10
2022-10-09T03:56:15.319Z,19.10
2022-10-09T03:58:42.882Z,19.00
2022-10-09T04:01:10.541Z,19.10
2022-10-09T04:03:38.140Z,19.10
2022-10-09T04:06:05.796Z,19.10
2022-10-09T04:08:33.236Z,19.00
2022-10-09T04:11:01.206Z,19.10
2022-10-09T04:13:28.670Z,19.20
2022-10-09T04:15:56.755Z,19.10
2022-10-09T04:18:24.817Z,19.10
2022-10-09T04:20:53.661Z,19.20
2022-10-09T04:23:22.837Z,19.20
2022-10-09T04:25:53.567Z,19.20
2022-10-09T04:28:21.507Z,19.20
2022-10-09T04:30:49.046Z,19.10
2022-10-09T04:33:16.570Z,19.00
2022-10-09T04:35:44.903Z,19.10
2022-10-09T04:38:12.877Z,19.00
2022-10-09T04:40:40.457Z,19.00
2022-10-09T04:43:07.972Z,19.00
2022-10-09T04:45:39.352Z,18.90
2022-10-09T04:48:06.912Z,18.80
2022-10-09T04:50:34.371Z,18.70
2022-10-09T04:53:01.994Z,18.70
2022-10-09T04:55:29.425Z,18.60
2022-10-09T04:57:56.887Z,18.60
2022-10-09T05:00:24.519Z,18.60
2022-10-09T05:02:52.276Z,18.60
2022-10-09T05:05:19.960Z,18.70
2022-10-09T05:07:47.561Z,18.60
2022-10-09T05:10:15.049Z,18.60
2022-10-09T05:12:42.585Z,18.50
2022-10-09T05:15:10.358Z,18.50
2022-10-09T05:17:37.970Z,18.60
2022-10-09T05:20:05.657Z,18.50
2022-10-09T05:22:33.195Z,18.60
2022-10-09T05:25:00.724Z,18.50
2022-10-09T05:27:28.424Z,18.50
2022-10-09T05:29:57.401Z,18.50
2022-10-09T05:32:24.975Z,18.30
2022-10-09T05:34:52.811Z,18.30
2022-10-09T05:37:20.559Z,18.10
2022-10-09T05:39:48.102Z,18.20
2022-10-09T05:42:15.635Z,18.20
2022-10-09T05:44:43.233Z,18.30
2022-10-09T05:47:10.693Z,18.40
2022-10-09T05:49:38.186Z,18.40
2022-10-09T05:52:05.784Z,18.40
2022-10-09T05:54:33.393Z,18.20
2022-10-09T05:57:00.917Z,18.20
2022-10-09T05:59:28.603Z,18.20
2022-10-09T06:01:56.158Z,18.20
2022-10-09T06:04:24.710Z,18.30
2022-10-09T06:06:52.208Z,18.30
2022-10-09T06:09:22.637Z,18.40
2022-10-09T06:11:51.190Z,18.50
2022-10-09T06:14:18.775Z,18.40
2022-10-09T06:16:46.476Z,18.50
2022-10-09T06:19:15.320Z,18.50
2022-10-09T06:21:43.645Z,18.60
2022-10-09T06:24:16.530Z,18.50
2022-10-09T06:26:44.019Z,18.60
2022-10-09T06:29:11.691Z,18.60
2022-10-09T06:31:39.239Z,18.70
2022-10-09T06:34:06.846Z,18.70
2022-10-09T06:36:35.622Z,18.70
2022-10-09T06:39:05.550Z,18.80
2022-10-09T06:41:33.196Z,18.90
2022-10-09T06:44:16.247Z,19.00
2022-10-09T06:46:45.248Z,19.10
2022-10-09T06:49:13.056Z,19.10
2022-10-09T06:51:40.440Z,19.20
2022-10-09T06:54:12.967Z,19.30
2022-10-09T06:56:40.574Z,19.30
2022-10-09T06:59:08.837Z,19.40
2022-10-09T07:01:36.408Z,19.50
2022-10-09T07:04:07.158Z,19.60
2022-10-09T07:06:37.611Z,19.60
2022-10-09T07:09:07.126Z,19.70
2022-10-09T07:11:36.009Z,19.80
2022-10-09T07:14:04.547Z,19.90
2022-10-09T07:16:33.693Z,20.00
2022-10-09T07:19:07.678Z,20.00
2022-10-09T07:21:36.185Z,20.10
2022-10-09T07:24:04.978Z,20.10
2022-10-09T07:26:34.233Z,20.10
2022-10-09T07:29:02.469Z,20.20
2022-10-09T07:31:30.066Z,20.20
2022-10-09T07:33:57.897Z,20.30
2022-10-09T07:36:25.786Z,20.30
2022-10-09T07:38:54.658Z,20.30
2022-10-09T07:41:23.286Z,20.30
2022-10-09T07:43:51.095Z,20.40
2022-10-09T07:46:19.699Z,20.30
2022-10-09T07:48:47.665Z,20.50
2022-10-09T07:51:16.940Z,20.50
2022-10-09T07:53:45.105Z,20.60
2022-10-09T07:56:16.733Z,20.70
2022-10-09T07:58:48.624Z,20.70
2022-10-09T08:01:20.174Z,20.90
2022-10-09T08:03:48.519Z,20.90
2022-10-09T08:06:16.415Z,21.00
2022-10-09T08:08:44.127Z,21.00
2022-10-09T08:11:13.226Z,21.10
2022-10-09T08:13:41.149Z,21.10
2022-10-09T08:16:08.717Z,21.20
2022-10-09T08:18:36.779Z,21.30
2022-10-09T08:21:06.027Z,21.40
2022-10-09T08:23:33.727Z,21.40
2022-10-09T08:26:01.494Z,21.60
2022-10-09T08:28:29.141Z,21.60
2022-10-09T08:30:56.767Z,21.70
2022-10-09T08:33:26.118Z,21.80
2022-10-09T08:35:54.609Z,21.80
2022-10-09T08:38:45.653Z,22.00
2022-10-09T08:41:29.901Z,22.10
2022-10-09T08:44:11.272Z,22.20
2022-10-09T08:46:47.773Z,22.20
2022-10-09T08:49:22.707Z,22.30
2022-10-09T08:51:50.876Z,22.20
2022-10-09T08:54:25.280Z,22.20
2022-10-09T08:56:53.000Z,22.10
2022-10-09T08:59:20.466Z,22.20
2022-10-09T09:01:57.672Z,22.30
2022-10-09T09:04:25.600Z,22.50
2022-10-09T09:06:52.989Z,22.60
2022-10-09T09:09:29.827Z,22.50
2022-10-09T09:12:01.268Z,22.40
2022-10-09T09:14:46.781Z,22.30
2022-10-09T09:17:14.304Z,22.30
2022-10-09T09:19:57.121Z,22.40
2022-10-09T09:22:25.060Z,22.50
2022-10-09T09:24:54.048Z,22.50
2022-10-09T09:27:24.730Z,22.50
2022-10-09T09:29:59.058Z,22.60
2022-10-09T09:32:28.027Z,22.80
2022-10-09T09:35:24.934Z,22.90
2022-10-09T09:37:53.029Z,22.90
2022-10-09T09:40:38.002Z,23.00
2022-10-09T09:43:13.813Z,23.20
2022-10-09T09:45:41.541Z,23.20
2022-10-09T09:48:13.288Z,23.30
2022-10-09T09:50:50.496Z,23.20
2022-10-09T09:53:27.457Z,23.10
2022-10-09T09:55:55.644Z,23.10
2022-10-09T09:58:23.567Z,23.10
2022-10-09T10:00:58.245Z,23.20
2022-10-09T10:03:25.873Z,23.20
2022-10-09T10:05:53.808Z,23.30
2022-10-09T10:08:34.169Z,23.20
2022-10-09T10:11:06.469Z,23.20
2022-10-09T10:13:37.601Z,23.40
2022-10-09T10:16:06.792Z,23.50
2022-10-09T10:18:42.021Z,23.60
2022-10-09T10:21:09.608Z,23.70
2022-10-09T10:23:52.031Z,23.70
2022-10-09T10:26:25.751Z,23.60
2022-10-09T10:29:19.605Z,23.50
2022-10-09T10:32:05.437Z,23.40
2022-10-09T10:34:36.376Z,23.40
2022-10-09T10:37:20.717Z,23.30
2022-10-09T10:39:54.258Z,23.40
2022-10-09T10:42:24.425Z,23.40
2022-10-09T10:45:00.949Z,23.50
2022-10-09T10:47:30.548Z,23.70
2022-10-09T10:49:58.053Z,23.90
2022-10-09T10:52:25.541Z,24.10
2022-10-09T10:54:58.184Z,24.00
2022-10-09T10:57:28.786Z,24.10
2022-10-09T11:00:06.084Z,24.20
2022-10-09T11:02:49.502Z,24.00
2022-10-09T11:05:31.411Z,24.00
2022-10-09T11:08:05.335Z,24.00
2022-10-09T11:10:35.841Z,24.10
2022-10-09T11:13:12.718Z,24.20
2022-10-09T11:15:52.759Z,24.50
2022-10-09T11:18:29.384Z,24.90
2022-10-09T11:21:02.970Z,24.80
2022-10-09T11:23:45.605Z,24.90
2022-10-09T11:26:27.764Z,24.70
2022-10-09T11:29:05.011Z,24.40
2022-10-09T11:31:38.160Z,24.60
2022-10-09T11:34:18.314Z,24.80
2022-10-09T11:36:45.850Z,25.00
2022-10-09T11:39:23.991Z,25.00
2022-10-09T11:41:52.469Z,24.80
2022-10-09T11:44:26.752Z,24.50
2022-10-09T11:47:01.968Z,24.10
2022-10-09T11:49:37.779Z,24.00
2022-10-09T11:52:08.407Z,23.90
2022-10-09T11:54:36.103Z,23.70
2022-10-09T11:57:06.395Z,24.20
2022-10-09T11:59:36.686Z,24.70
2022-10-09T12:02:21.651Z,25.30
2022-10-09T12:04:54.897Z,25.60
2022-10-09T12:07:27.874Z,25.80
2022-10-09T12:10:00.994Z,26.00
2022-10-09T12:12:29.368Z,25.80
2022-10-09T12:14:56.839Z,25.90
2022-10-09T12:17:24.271Z,26.10
2022-10-09T12:20:00.790Z,26.20
2022-10-09T12:22:34.993Z,26.30
2022-10-09T12:25:28.793Z,26.40
2022-10-09T12:27:57.535Z,26.40
2022-10-09T12:30:37.238Z,25.80
2022-10-09T12:33:07.818Z,25.30
2022-10-09T12:35:36.637Z,25.20
2022-10-09T12:38:22.744Z,25.20
2022-10-09T12:40:51.854Z,25.30
2022-10-09T12:43:21.132Z,25.30
2022-10-09T12:45:49.750Z,25.20
2022-10-09T12:48:19.997Z,25.60
2022-10-09T12:50:47.692Z,25.90
2022-10-09T12:53:25.927Z,26.30
2022-10-09T12:55:56.159Z,26.10
2022-10-09T12:58:25.763Z,26.20
2022-10-09T13:01:01.293Z,26.00
2022-10-09T13:03:35.534Z,25.60
2022-10-09T13:06:08.030Z,25.20
2022-10-09T13:08:37.490Z,24.90
2022-10-09T13:11:08.977Z,24.80
2022-10-09T13:13:36.460Z,25.00
2022-10-09T13:16:07.076Z,25.00
2022-10-09T13:18:34.668Z,24.90
2022-10-09T13:21:29.045Z,24.70
2022-10-09T13:24:09.135Z,24.60
2022-10-09T13:26:38.178Z,24.80
2022-10-09T13:29:06.582Z,24.80
2022-10-09T13:31:37.038Z,25.10
2022-10-09T13:34:12.886Z,25.40
2022-10-09T13:36:41.040Z,25.30
2022-10-09T13:39:15.016Z,25.20
2022-10-09T13:41:43.356Z,25.00
2022-10-09T13:44:11.043Z,25.00
2022-10-09T13:46:38.598Z,25.00
2022-10-09T13:49:06.040Z,24.70
2022-10-09T13:51:33.629Z,24.70
2022-10-09T13:54:01.223Z,24.90
2022-10-09T13:56:29.412Z,25.00
2022-10-09T13:58:57.036Z,24.90
2022-10-09T14:01:24.561Z,25.00
2022-10-09T14:03:52.107Z,24.90
2022-10-09T14:06:19.640Z,24.80
2022-10-09T14:08:47.115Z,24.60
2022-10-09T14:11:14.682Z,24.50
2022-10-09T14:13:42.248Z,24.50
2022-10-09T14:16:11.293Z,24.50
2022-10-09T14:18:38.787Z,24.40
2022-10-09T14:21:15.269Z,24.30
2022-10-09T14:23:43.414Z,24.40
2022-10-09T14:26:10.922Z,24.30
2022-10-09T14:28:38.751Z,24.20
2022-10-09T14:31:06.884Z,24.10
2022-10-09T14:33:34.674Z,24.10
2022-10-09T14:36:09.219Z,24.10
2022-10-09T14:38:39.848Z,24.10
2022-10-09T14:41:07.951Z,24.10
2022-10-09T14:43:35.925Z,24.10
2022-10-09T14:46:04.604Z,24.20
2022-10-09T14:48:32.258Z,24.30
2022-10-09T14:51:06.686Z,24.40
2022-10-09T14:53:34.339Z,24.20
2022-10-09T14:56:06.308Z,24.20
2022-10-09T14:58:35.547Z,24.30
2022-10-09T15:01:03.188Z,24.20
2022-10-09T15:03:31.247Z,24.30
2022-10-09T15:05:59.534Z,24.30
2022-10-09T15:08:29.253Z,24.30
2022-10-09T15:10:56.922Z,24.30
2022-10-09T15:13:24.407Z,24.20
2022-10-09T15:15:51.900Z,24.00
2022-10-09T15:18:19.368Z,24.00
2022-10-09T15:20:47.235Z,23.80
2022-10-09T15:23:14.665Z,23.60
2022-10-09T15:25:47.802Z,23.60
2022-10-09T15:28:16.794Z,23.50
2022-10-09T15:30:45.319Z,23.40
2022-10-09T15:33:12.901Z,23.40
2022-10-09T15:35:40.304Z,23.50
2022-10-09T15:38:07.959Z,23.40
2022-10-09T15:40:42.042Z,23.30
2022-10-09T15:43:09.586Z,23.30
2022-10-09T15:45:37.134Z,23.30
2022-10-09T15:48:04.698Z,23.20
2022-10-09T15:50:35.028Z,23.20
2022-10-09T15:53:02.847Z,23.20
2022-10-09T15:55:30.287Z,23.20
2022-10-09T15:57:57.742Z,23.20
2022-10-09T16:00:25.311Z,23.20
2022-10-09T16:02:52.965Z,23.20
2022-10-09T16:05:20.482Z,23.10
2022-10-09T16:07:47.943Z,23.10
2022-10-09T16:10:15.440Z,23.00
2022-10-09T16:12:43.071Z,22.90
2022-10-09T16:15:11.141Z,22.80
2022-10-09T16:17:38.630Z,22.70
2022-10-09T16:20:06.401Z,22.70
2022-10-09T16:22:34.378Z,22.50
2022-10-09T16:25:02.416Z,22.40
2022-10-09T16:27:29.969Z,22.40
2022-10-09T16:29:57.416Z,22.30
2022-10-09T16:32:24.876Z,22.30
2022-10-09T16:34:52.452Z,22.30
2022-10-09T16:37:19.913Z,22.30
2022-10-09T16:39:47.447Z,22.20
2022-10-09T16:42:15.340Z,22.20
2022-10-09T16:44:42.891Z,22.10
2022-10-09T16:47:13.232Z,22.00
2022-10-09T16:49:40.916Z,21.80
2022-10-09T16:52:08.824Z,21.90
2022-10-09T16:54:36.230Z,21.90
2022-10-09T16:57:04.771Z,21.90
2022-10-09T16:59:32.299Z,21.70
2022-10-09T17:02:00.536Z,21.70
2022-10-09T17:04:28.144Z,21.60
2022-10-09T17:06:55.659Z,21.70
2022-10-09T17:09:23.272Z,21.60
2022-10-09T17:11:50.778Z,21.50
2022-10-09T17:14:18.330Z,21.40
2022-10-09T17:16:45.773Z,21.40
2022-10-09T17:19:13.886Z,21.30
2022-10-09T17:21:42.181Z,21.20
2022-10-09T17:24:13.081Z,21.30
2022-10-09T17:26:41.164Z,21.30
2022-10-09T17:29:08.752Z,21.20
2022-10-09T17:31:36.191Z,21.20
2022-10-09T17:34:04.802Z,21.10
2022-10-09T17:36:33.950Z,21.00
2022-10-09T17:39:02.105Z,21.00
2022-10-09T17:41:30.285Z,21.00
2022-10-09T17:43:57.836Z,21.00
2022-10-09T17:46:27.505Z,20.90
2022-10-09T17:48:57.098Z,20.80
2022-10-09T17:51:26.366Z,20.70
2022-10-09T17:56:24.462Z,20.50
2022-10-09T17:58:52.364Z,20.50
2022-10-09T18:01:19.920Z,20.40
2022-10-09T18:03:47.482Z,20.30
2022-10-09T18:06:16.224Z,20.00
2022-10-09T18:08:43.937Z,20.00
2022-10-09T18:11:15.590Z,20.00
2022-10-09T18:13:43.658Z,20.00
2022-10-09T18:16:19.161Z,20.10
2022-10-09T18:18:46.742Z,20.20
2022-10-09T18:21:17.156Z,20.30
2022-10-09T18:23:45.377Z,20.10
2022-10-09T18:26:14.772Z,19.90
2022-10-09T18:28:44.812Z,20.00
2022-10-09T18:31:19.926Z,20.10
2022-10-09T18:33:47.845Z,20.10
2022-10-09T18:36:19.921Z,20.00
2022-10-09T18:38:48.666Z,20.10
2022-10-09T18:41:16.712Z,20.10
2022-10-09T18:43:44.423Z,20.10
2022-10-09T18:46:12.486Z,20.20
2022-10-09T18:48:41.073Z,20.20
2022-10-09T18:51:11.025Z,20.20
2022-10-09T18:53:39.121Z,20.20
2022-10-09T18:56:07.217Z,20.20
2022-10-09T18:58:35.165Z,20.20
2022-10-09T19:01:07.234Z,20.30
2022-10-09T19:03:36.827Z,20.30
2022-10-09T19:06:04.556Z,20.30
2022-10-09T19:08:32.176Z,20.30
2022-10-09T19:10:59.631Z,20.20
2022-10-09T19:13:27.935Z,20.20
2022-10-09T19:16:04.754Z,20.20
2022-10-09T19:18:32.931Z,20.30
2022-10-09T19:21:00.438Z,20.30
2022-10-09T19:23:27.978Z,20.30
2022-10-09T19:25:58.427Z,20.20
2022-10-09T19:28:30.794Z,20.20
2022-10-09T19:30:59.124Z,20.20
2022-10-09T19:33:26.552Z,20.00
2022-10-09T19:35:55.091Z,20.00
2022-10-09T19:38:23.031Z,19.90
2022-10-09T19:40:50.815Z,19.90
2022-10-09T19:43:18.894Z,19.90
2022-10-09T19:45:49.265Z,19.90
2022-10-09T19:48:17.356Z,19.80
2022-10-09T19:50:45.637Z,19.70
2022-10-09T19:53:13.760Z,19.70
2022-10-09T19:55:41.240Z,19.50
2022-10-09T19:58:09.842Z,19.50
2022-10-09T20:00:41.126Z,19.30
2022-10-09T20:03:09.287Z,19.30
2022-10-09T20:05:36.822Z,19.20
2022-10-09T20:08:04.377Z,19.10
2022-10-09T20:10:31.959Z,19.20
2022-10-09T20:12:59.487Z,19.10
2022-10-09T20:15:26.951Z,19.00
2022-10-09T20:17:55.270Z,19.10
2022-10-09T20:20:22.829Z,19.20
2022-10-09T20:22:50.587Z,19.30
2022-10-09T20:25:18.358Z,19.40
2022-10-09T20:27:45.949Z,19.40
2022-10-09T20:30:13.976Z,19.60
2022-10-09T20:32:41.695Z,19.60
2022-10-09T20:35:09.585Z,19.60
2022-10-09T20:37:37.237Z,19.70
2022-10-09T20:40:04.871Z,19.70
2022-10-09T20:42:32.615Z,19.70
2022-10-09T20:45:00.267Z,19.70
2022-10-09T20:47:27.841Z,19.70
2022-10-09T20:49:55.352Z,19.70
2022-10-09T20:52:22.888Z,19.80
2022-10-09T20:54:50.528Z,19.70
2022-10-09T20:57:18.258Z,19.70
2022-10-09T20:59:45.720Z,19.60
2022-10-09T21:02:16.214Z,19.60
2022-10-09T21:04:43.742Z,19.50
2022-10-09T21:07:11.142Z,19.50
2022-10-09T21:09:38.674Z,19.50
2022-10-09T21:12:07.224Z,19.40
2022-10-09T21:14:34.719Z,19.40
2022-10-09T21:17:02.229Z,19.40
2022-10-09T21:19:30.023Z,19.40
2022-10-09T21:21:57.519Z,19.30
2022-10-09T21:24:25.253Z,19.20
2022-10-09T21:26:52.712Z,19.20
2022-10-09T21:29:20.325Z,19.10
2022-10-09T21:31:47.902Z,19.20
2022-10-09T21:34:15.463Z,19.10
2022-10-09T21:36:56.170Z,19.20
2022-10-09T21:39:30.536Z,19.20
2022-10-09T21:41:58.016Z,19.20
2022-10-09T21:44:25.472Z,19.30
2022-10-09T21:46:53.011Z,19.30
2022-10-09T21:49:22.497Z,19.30
2022-10-09T21:51:50.239Z,19.30
2022-10-09T21:54:17.963Z,19.30
2022-10-09T21:56:45.605Z,19.30
2022-10-09T21:59:13.407Z,19.30
2022-10-09T22:01:41.163Z,19.30
2022-10-09T22:04:08.767Z,19.40
2022-10-09T22:06:36.419Z,19.30
2022-10-09T22:09:03.979Z,19.30
2022-10-09T22:11:31.615Z,19.20
2022-10-09T22:13:59.142Z,19.20
2022-10-09T22:16:26.605Z,19.20
2022-10-09T22:18:54.159Z,19.20
2022-10-09T22:21:23.122Z,19.20
2022-10-09T22:23:50.793Z,19.20
2022-10-09T22:26:19.640Z,19.20
2022-10-09T22:28:47.727Z,19.20
2022-10-09T22:31:20.334Z,19.20
2022-10-09T22:33:55.151Z,19.20
2022-10-09T22:36:24.248Z,19.20
2022-10-09T22:38:55.424Z,19.10
2022-10-09T22:41:23.387Z,19.00
2022-10-09T22:43:52.450Z,19.10
2022-10-09T22:46:22.101Z,19.10
2022-10-09T22:48:50.020Z,19.00
2022-10-09T22:51:18.356Z,19.00
2022-10-09T22:53:46.097Z,19.10
2022-10-09T22:56:18.060Z,19.10
2022-10-09T22:58:46.376Z,19.00
2022-10-09T23:01:27.324Z,19.00
2022-10-09T23:03:54.868Z,19.00
2022-10-09T23:06:22.435Z,19.00
2022-10-09T23:08:50.480Z,19.00
2022-10-09T23:11:18.687Z,19.10
2022-10-09T23:13:46.599Z,19.00
2022-10-09T23:16:14.877Z,19.00
2022-10-09T23:18:42.935Z,19.00
2022-10-09T23:21:15.490Z,19.00
2022-10-09T23:23:43.705Z,19.10
2022-10-09T23:26:12.546Z,19.10
2022-10-09T23:28:40.307Z,19.10
2022-10-09T23:31:09.160Z,19.10
2022-10-09T23:33:38.057Z,19.20
2022-10-09T23:36:06.045Z,19.10
2022-10-09T23:38:33.774Z,19.10
2022-10-09T23:41:05.985Z,19.10
2022-10-09T23:43:34.589Z,19.10
2022-10-09T23:46:03.193Z,19.10
2022-10-09T23:48:31.092Z,19.10
2022-10-09T23:50:58.655Z,19.10
2022-10-09T23:53:26.845Z,19.10
2022-10-09T23:55:54.434Z,19.10
2022-10-09T23:58:22.375Z,19.20
